Terminal Aerodrome Forecast
Issued by NWS Norman, OK

Home | Current Version | Previous Version | Text Only | Print | Product List | Glossary On
Versions: 1 2 3 4 5 6 7 8 9 10 11 12 13 14 15 16 17 18 19 20 21 22 23 24
000
FTUS44 KOUN 011742
TAFSPS
TAF
KSPS 011742Z 0118/0218 21022KT P6SM FEW250
     FM020000 18013KT P6SM BKN250 PROB30 0203/0209 4SM -TSRA
      OVC050CB
     FM020900 18014KT P6SM OVC120 PROB30 0209/0215 5SM -TSRA
      OVC050CB=

USA.gov is the U.S. government's official web portal to all federal, state and local government web resources and services.